createdAt,value
2022-11-26T00:02:29.345Z,74.30
2022-11-26T00:05:19.255Z,74.32
2022-11-26T00:08:21.057Z,73.89
2022-11-26T00:11:17.349Z,74.03
2022-11-26T00:14:14.805Z,73.56
2022-11-26T00:17:04.191Z,73.76
2022-11-26T00:19:53.577Z,73.68
2022-11-26T00:22:46.828Z,73.31
2022-11-26T00:25:43.571Z,73.26
2022-11-26T00:28:37.218Z,72.88
2022-11-26T00:31:26.466Z,72.80
2022-11-26T00:34:15.883Z,72.83
2022-11-26T00:37:05.326Z,72.92
2022-11-26T00:39:55.381Z,73.13
2022-11-26T00:42:44.549Z,72.98
2022-11-26T00:45:35.234Z,72.73
2022-11-26T00:48:24.598Z,72.49
2022-11-26T00:51:16.672Z,72.31
2022-11-26T00:54:07.406Z,72.48
2022-11-26T00:56:57.971Z,72.31
2022-11-26T00:59:47.233Z,72.29
2022-11-26T01:02:38.072Z,71.88
2022-11-26T01:05:33.642Z,71.82
2022-11-26T01:08:31.017Z,71.85
2022-11-26T01:11:23.428Z,71.72
2022-11-26T01:14:17.727Z,71.68
2022-11-26T01:17:11.082Z,72.16
2022-11-26T01:20:01.886Z,72.52
2022-11-26T01:22:52.154Z,72.26
2022-11-26T01:25:42.860Z,72.44
2022-11-26T01:28:32.228Z,71.94
2022-11-26T01:31:24.087Z,71.79
2022-11-26T01:34:13.829Z,72.23
2022-11-26T01:37:04.795Z,72.41
2022-11-26T01:39:54.327Z,72.10
2022-11-26T01:42:48.184Z,72.15
2022-11-26T01:45:37.442Z,72.65
2022-11-26T01:48:34.221Z,72.28
2022-11-26T01:51:26.970Z,72.32
2022-11-26T01:54:19.113Z,72.39
2022-11-26T01:57:14.308Z,72.54
2022-11-26T02:00:04.301Z,72.51
2022-11-26T02:03:03.261Z,72.97
2022-11-26T02:06:00.379Z,74.18
2022-11-26T02:08:50.214Z,75.09
2022-11-26T02:11:41.708Z,74.86
2022-11-26T02:14:37.210Z,74.94
2022-11-26T02:17:35.001Z,75.33
2022-11-26T02:20:49.961Z,75.01
2022-11-26T02:24:05.346Z,74.86
2022-11-26T02:27:44.896Z,75.81
2022-11-26T02:30:41.098Z,75.58
2022-11-26T02:33:36.237Z,75.66
2022-11-26T02:36:31.366Z,75.41
2022-11-26T02:39:23.138Z,75.48
2022-11-26T02:42:27.055Z,75.49
2022-11-26T02:45:21.081Z,75.63
2022-11-26T02:48:16.823Z,75.87
2022-11-26T02:51:11.470Z,76.17
2022-11-26T02:54:01.863Z,76.05
2022-11-26T02:56:53.140Z,76.12
2022-11-26T02:59:43.704Z,75.72
2022-11-26T03:02:38.436Z,75.64
2022-11-26T03:05:33.178Z,75.58
2022-11-26T03:08:23.364Z,75.43
2022-11-26T03:11:12.879Z,75.37
2022-11-26T03:14:02.142Z,74.84
2022-11-26T03:16:51.548Z,75.48
2022-11-26T03:19:40.954Z,75.27
2022-11-26T03:22:31.715Z,74.57
2022-11-26T03:25:21.150Z,75.08
2022-11-26T03:28:10.364Z,74.77
2022-11-26T03:30:59.634Z,74.40
2022-11-26T03:33:48.928Z,74.11
2022-11-26T03:36:38.170Z,74.39
2022-11-26T03:39:28.941Z,73.99
2022-11-26T03:42:18.530Z,73.78
2022-11-26T03:45:09.060Z,73.44
2022-11-26T03:47:58.569Z,73.70
2022-11-26T03:50:47.996Z,73.65
2022-11-26T03:53:37.288Z,73.46
2022-11-26T03:56:28.004Z,73.46
2022-11-26T03:59:17.402Z,74.06
2022-11-26T04:02:06.996Z,73.75
2022-11-26T04:04:56.220Z,73.79
2022-11-26T04:07:45.537Z,74.04
2022-11-26T04:10:34.936Z,73.46
2022-11-26T04:13:25.818Z,73.86
2022-11-26T04:16:15.177Z,74.21
2022-11-26T04:19:04.658Z,74.56
2022-11-26T04:21:54.026Z,74.47
2022-11-26T04:24:43.396Z,75.55
2022-11-26T04:27:32.878Z,75.74
2022-11-26T04:30:23.652Z,76.02
2022-11-26T04:33:12.994Z,76.08
2022-11-26T04:36:02.310Z,77.20
2022-11-26T04:38:51.553Z,77.78
2022-11-26T04:41:42.956Z,78.14
2022-11-26T04:44:33.642Z,77.96
2022-11-26T04:47:24.349Z,78.44
2022-11-26T04:50:14.285Z,78.44
2022-11-26T04:53:03.666Z,79.15
2022-11-26T04:55:54.167Z,79.43
2022-11-26T04:58:43.405Z,79.65
2022-11-26T05:01:32.712Z,80.33
2022-11-26T05:04:23.383Z,80.26
2022-11-26T05:07:12.829Z,80.54
2022-11-26T05:10:02.459Z,80.09
2022-11-26T05:12:51.712Z,79.99
2022-11-26T05:15:41.035Z,79.89
2022-11-26T05:18:30.352Z,79.96
2022-11-26T05:21:20.998Z,80.27
2022-11-26T05:24:10.524Z,79.91
2022-11-26T05:26:59.920Z,80.27
2022-11-26T05:29:49.313Z,80.74
2022-11-26T05:32:38.736Z,81.08
2022-11-26T05:35:28.095Z,80.75
2022-11-26T05:38:18.902Z,81.19
2022-11-26T05:41:08.403Z,81.16
2022-11-26T05:43:57.722Z,81.53
2022-11-26T05:46:47.242Z,81.50
2022-11-26T05:49:36.511Z,81.40
2022-11-26T05:52:27.397Z,81.12
2022-11-26T05:55:18.296Z,80.79
2022-11-26T05:58:09.762Z,80.49
2022-11-26T06:00:59.082Z,80.44
2022-11-26T06:03:48.492Z,79.94
2022-11-26T06:06:38.106Z,80.19
2022-11-26T06:09:27.374Z,80.22
2022-11-26T06:12:18.129Z,79.86
2022-11-26T06:15:08.909Z,80.06
2022-11-26T06:17:58.448Z,80.42
2022-11-26T06:20:47.859Z,80.69
2022-11-26T06:23:37.629Z,81.28
2022-11-26T06:26:27.202Z,80.89
2022-11-26T06:29:18.072Z,81.38
2022-11-26T06:32:07.441Z,81.75
2022-11-26T06:34:56.766Z,81.70
2022-11-26T06:37:46.053Z,81.90
2022-11-26T06:40:35.418Z,81.04
2022-11-26T06:43:24.685Z,80.67
2022-11-26T06:46:15.641Z,80.10
2022-11-26T06:49:07.325Z,79.36
2022-11-26T06:51:56.790Z,78.93
2022-11-26T06:54:46.181Z,78.95
2022-11-26T06:57:35.523Z,78.29
2022-11-26T07:00:25.075Z,78.07
2022-11-26T07:03:19.744Z,78.19
2022-11-26T07:06:18.958Z,77.46
2022-11-26T07:09:11.688Z,77.26
2022-11-26T07:12:00.939Z,77.31
2022-11-26T07:14:50.378Z,77.15
2022-11-26T07:17:39.767Z,77.47
2022-11-26T07:20:30.460Z,77.05
2022-11-26T07:23:19.784Z,77.09
2022-11-26T07:26:12.784Z,76.89
2022-11-26T07:29:02.077Z,76.44
2022-11-26T07:31:51.535Z,76.28
2022-11-26T07:34:41.019Z,76.05
2022-11-26T07:37:33.355Z,76.41
2022-11-26T07:40:22.952Z,76.14
2022-11-26T07:43:12.238Z,76.60
2022-11-26T07:46:03.724Z,76.00
2022-11-26T07:48:53.231Z,75.87
2022-11-26T07:51:42.730Z,76.13
2022-11-26T07:54:33.559Z,75.68
2022-11-26T07:57:23.120Z,75.92
2022-11-26T08:00:13.998Z,76.03
2022-11-26T08:03:03.391Z,76.12
2022-11-26T08:05:52.851Z,75.98
2022-11-26T08:08:43.202Z,76.18
2022-11-26T08:11:35.452Z,76.13
2022-11-26T08:14:25.202Z,76.30
2022-11-26T08:17:14.552Z,76.05
2022-11-26T08:20:03.830Z,75.39
2022-11-26T08:22:53.387Z,74.71
2022-11-26T08:26:05.994Z,74.28
2022-11-26T08:28:54.487Z,73.99
2022-11-26T08:31:46.498Z,73.91
2022-11-26T08:34:36.527Z,74.20
2022-11-26T08:37:26.257Z,73.56
2022-11-26T08:40:16.064Z,73.46
2022-11-26T08:43:05.677Z,73.46
2022-11-26T08:45:58.023Z,72.95
2022-11-26T08:48:47.331Z,72.53
2022-11-26T08:51:36.838Z,72.88
2022-11-26T08:54:26.585Z,72.75
2022-11-26T08:57:15.887Z,73.06
2022-11-26T09:00:06.526Z,73.37
2022-11-26T09:02:57.330Z,73.16
2022-11-26T09:05:46.643Z,73.33
2022-11-26T09:08:58.072Z,73.21
2022-11-26T09:11:51.753Z,73.12
2022-11-26T09:14:42.573Z,73.35
2022-11-26T09:17:32.377Z,73.49
2022-11-26T09:20:23.314Z,73.69
2022-11-26T09:23:12.558Z,73.07
2022-11-26T09:26:01.857Z,72.89
2022-11-26T09:28:51.542Z,72.99
2022-11-26T09:32:00.851Z,73.21
2022-11-26T09:34:50.262Z,72.96
2022-11-26T09:37:41.025Z,72.69
2022-11-26T09:40:42.333Z,72.63
2022-11-26T09:43:41.205Z,72.77
2022-11-26T09:46:45.495Z,72.46
2022-11-26T09:50:04.686Z,72.56
2022-11-26T09:53:02.747Z,73.00
2022-11-26T09:55:54.864Z,73.13
2022-11-26T09:58:52.100Z,73.21
2022-11-26T10:01:42.709Z,73.16
2022-11-26T10:04:37.807Z,73.03
2022-11-26T10:07:54.614Z,73.48
2022-11-26T10:10:53.910Z,73.52
2022-11-26T10:13:51.702Z,73.47
2022-11-26T10:16:48.458Z,73.38
2022-11-26T10:19:51.025Z,73.20
2022-11-26T10:22:56.739Z,73.43
2022-11-26T10:25:51.372Z,73.44
2022-11-26T10:28:46.781Z,73.25
2022-11-26T10:31:36.738Z,73.44
2022-11-26T10:34:39.454Z,73.47
2022-11-26T10:37:30.709Z,73.04
2022-11-26T10:40:25.557Z,72.87
2022-11-26T10:43:23.940Z,72.93
2022-11-26T10:46:35.834Z,72.74
2022-11-26T10:49:27.823Z,72.49
2022-11-26T10:52:20.664Z,72.25
2022-11-26T10:55:22.732Z,71.71
2022-11-26T10:58:20.760Z,71.88
2022-11-26T11:01:14.393Z,71.50
2022-11-26T11:04:08.125Z,71.76
2022-11-26T11:06:58.258Z,71.65
2022-11-26T11:09:47.545Z,71.95
2022-11-26T11:12:37.843Z,71.65
2022-11-26T11:15:32.195Z,71.67
2022-11-26T11:18:23.284Z,71.37
2022-11-26T11:21:19.039Z,71.16
2022-11-26T11:24:11.320Z,71.10
2022-11-26T11:27:01.567Z,70.96
2022-11-26T11:29:53.061Z,71.17
2022-11-26T11:32:43.729Z,71.49
2022-11-26T11:35:32.977Z,71.38
2022-11-26T11:38:26.315Z,71.50
2022-11-26T11:41:28.613Z,71.64
2022-11-26T11:44:22.310Z,72.32
2022-11-26T11:47:41.128Z,72.33
2022-11-26T11:50:39.234Z,72.69
2022-11-26T11:53:38.343Z,73.30
2022-11-26T11:56:35.327Z,73.50
2022-11-26T12:00:09.821Z,73.70
2022-11-26T12:03:45.134Z,73.65
2022-11-26T12:06:46.724Z,73.91
2022-11-26T12:09:45.914Z,73.81
2022-11-26T12:12:39.568Z,74.43
2022-11-26T12:15:32.979Z,74.33
2022-11-26T12:18:27.680Z,74.36
2022-11-26T12:21:20.834Z,74.22
2022-11-26T12:24:15.681Z,74.71
2022-11-26T12:27:12.873Z,74.62
2022-11-26T12:30:11.676Z,75.47
2022-11-26T12:33:08.284Z,74.78
2022-11-26T12:36:02.986Z,74.93
2022-11-26T12:38:56.031Z,74.91
2022-11-26T12:41:54.377Z,74.97
2022-11-26T12:44:49.336Z,75.06
2022-11-26T12:47:43.781Z,75.08
2022-11-26T12:50:43.201Z,75.62
2022-11-26T12:53:40.358Z,75.70
2022-11-26T12:56:35.970Z,75.72
2022-11-26T12:59:34.329Z,75.44
2022-11-26T13:02:27.811Z,75.49
2022-11-26T13:05:21.082Z,75.86
2022-11-26T13:08:27.424Z,76.32
2022-11-26T13:11:32.005Z,76.43
2022-11-26T13:14:33.460Z,76.34
2022-11-26T13:17:31.154Z,76.61
2022-11-26T13:20:47.826Z,77.01
2022-11-26T13:24:06.926Z,77.01
2022-11-26T13:27:20.673Z,77.10
2022-11-26T13:30:22.489Z,77.23
2022-11-26T13:33:34.870Z,77.08
2022-11-26T13:37:30.611Z,77.40
2022-11-26T13:40:44.825Z,77.35
2022-11-26T13:44:25.163Z,77.32
2022-11-26T13:47:22.876Z,77.35
2022-11-26T13:50:18.952Z,77.39
2022-11-26T13:53:25.037Z,77.74
2022-11-26T13:56:20.571Z,77.64
2022-11-26T13:59:21.626Z,77.33
2022-11-26T14:02:44.485Z,77.64
2022-11-26T14:06:09.215Z,77.27
2022-11-26T14:08:59.246Z,77.40
2022-11-26T14:11:57.146Z,77.27
2022-11-26T14:14:47.974Z,77.12
2022-11-26T14:17:57.666Z,76.80
2022-11-26T14:21:19.871Z,76.90
2022-11-26T14:24:09.128Z,76.90
2022-11-26T14:26:58.386Z,76.82
2022-11-26T14:29:54.706Z,76.63
2022-11-26T14:32:55.545Z,76.31
2022-11-26T14:35:56.939Z,76.16
2022-11-26T14:38:46.248Z,75.94
2022-11-26T14:41:51.513Z,76.30
2022-11-26T14:44:41.001Z,76.12
2022-11-26T14:47:31.800Z,76.07
2022-11-26T14:50:25.643Z,76.19
2022-11-26T14:53:14.914Z,76.29
2022-11-26T14:56:06.178Z,76.15
2022-11-26T14:58:59.966Z,76.29
2022-11-26T15:01:49.287Z,76.56
2022-11-26T15:04:39.413Z,76.65
2022-11-26T15:07:31.912Z,76.76
2022-11-26T15:10:22.667Z,76.66
2022-11-26T15:13:17.887Z,77.03
2022-11-26T15:16:29.132Z,77.34
2022-11-26T15:19:18.608Z,77.20
2022-11-26T15:22:09.902Z,77.53
2022-11-26T15:25:00.833Z,77.79
2022-11-26T15:27:59.105Z,77.88
2022-11-26T15:30:57.695Z,77.90
2022-11-26T15:33:47.965Z,78.35
2022-11-26T15:36:37.457Z,78.42
2022-11-26T15:39:31.172Z,78.64
2022-11-26T15:42:32.637Z,78.71
2022-11-26T15:45:24.250Z,79.00
2022-11-26T15:48:28.059Z,78.79
2022-11-26T15:51:36.085Z,78.92
2022-11-26T15:54:43.450Z,78.99
2022-11-26T15:57:42.200Z,79.22
2022-11-26T16:00:37.261Z,79.28
2022-11-26T16:03:46.081Z,79.34
2022-11-26T16:06:38.037Z,79.59
2022-11-26T16:09:32.721Z,80.41
2022-11-26T16:12:32.970Z,80.47
2022-11-26T16:15:27.406Z,81.24
2022-11-26T16:18:21.672Z,81.43
2022-11-26T16:21:22.425Z,81.83
2022-11-26T16:24:31.850Z,81.74
2022-11-26T16:27:31.709Z,81.71
2022-11-26T16:30:22.759Z,82.83
2022-11-26T16:33:12.317Z,82.65
2022-11-26T16:36:02.860Z,83.97
2022-11-26T16:38:53.306Z,84.20
2022-11-26T16:41:42.807Z,84.23
2022-11-26T16:44:32.384Z,84.79
2022-11-26T16:47:28.865Z,85.84
2022-11-26T16:50:20.998Z,85.94
2022-11-26T16:53:10.967Z,86.53
2022-11-26T16:56:00.783Z,86.40
2022-11-26T16:58:51.183Z,86.80
2022-11-26T17:01:40.384Z,87.27
2022-11-26T17:04:31.345Z,87.16
2022-11-26T17:07:23.877Z,87.22
2022-11-26T17:10:16.369Z,87.45
2022-11-26T17:13:05.766Z,87.52
2022-11-26T17:15:55.294Z,87.61
2022-11-26T17:18:44.946Z,87.86
2022-11-26T17:21:35.605Z,87.62
2022-11-26T17:24:31.164Z,87.46
2022-11-26T17:27:23.542Z,87.30
2022-11-26T17:30:18.636Z,87.35
2022-11-26T17:33:08.182Z,87.43
2022-11-26T17:35:57.991Z,87.77
2022-11-26T17:38:49.398Z,87.50
2022-11-26T17:41:38.650Z,87.55
2022-11-26T17:44:27.865Z,88.04
2022-11-26T17:47:18.611Z,88.19
2022-11-26T17:50:15.946Z,87.79
2022-11-26T17:53:05.274Z,87.64
2022-11-26T17:55:56.005Z,87.75
2022-11-26T17:58:45.860Z,87.67
2022-11-26T18:01:35.178Z,87.78
2022-11-26T18:04:25.056Z,87.55
2022-11-26T18:07:17.752Z,87.34
2022-11-26T18:10:11.948Z,88.31
2022-11-26T18:13:02.765Z,88.01
2022-11-26T18:16:00.500Z,88.27
2022-11-26T18:18:49.809Z,88.03
2022-11-26T18:21:39.720Z,88.10
2022-11-26T18:24:29.555Z,88.70
2022-11-26T18:27:19.033Z,88.77
2022-11-26T18:30:10.972Z,88.55
2022-11-26T18:33:00.353Z,89.14
2022-11-26T18:35:52.529Z,89.32
2022-11-26T18:38:41.869Z,89.37
2022-11-26T18:41:31.143Z,90.27
2022-11-26T18:44:20.545Z,89.96
2022-11-26T18:47:11.332Z,90.09
2022-11-26T18:50:00.615Z,90.21
2022-11-26T18:52:49.853Z,90.29
2022-11-26T18:55:41.290Z,89.96
2022-11-26T18:58:31.946Z,89.71
2022-11-26T19:01:24.637Z,89.51
2022-11-26T19:04:15.359Z,89.69
2022-11-26T19:07:04.668Z,89.95
2022-11-26T19:09:54.004Z,90.43
2022-11-26T19:12:43.448Z,90.52
2022-11-26T19:15:33.239Z,90.46
2022-11-26T19:18:22.557Z,90.37
2022-11-26T19:21:21.272Z,89.90
2022-11-26T19:24:11.888Z,89.23
2022-11-26T19:27:01.524Z,88.88
2022-11-26T19:29:50.876Z,88.95
2022-11-26T19:32:40.219Z,87.89
2022-11-26T19:35:29.517Z,87.90
2022-11-26T19:38:20.319Z,87.79
2022-11-26T19:41:09.696Z,87.76
2022-11-26T19:44:01.358Z,87.44
2022-11-26T19:46:51.321Z,86.93
2022-11-26T19:49:40.817Z,86.90
2022-11-26T19:52:30.339Z,86.97
2022-11-26T19:55:21.335Z,87.40
2022-11-26T19:58:10.589Z,87.15
2022-11-26T20:01:00.251Z,86.93
2022-11-26T20:03:49.594Z,86.94
2022-11-26T20:06:39.487Z,87.38
2022-11-26T20:09:28.824Z,86.82
2022-11-26T20:12:19.676Z,87.12
2022-11-26T20:15:11.182Z,86.79
2022-11-26T20:18:00.571Z,86.83
2022-11-26T20:20:59.719Z,86.85
2022-11-26T20:23:50.154Z,86.99
2022-11-26T20:26:42.202Z,86.94
2022-11-26T20:29:32.990Z,88.12
2022-11-26T20:32:22.856Z,88.55
2022-11-26T20:35:13.027Z,88.51
2022-11-26T20:38:02.375Z,86.64
2022-11-26T20:40:51.701Z,85.35
2022-11-26T20:43:41.361Z,84.01
2022-11-26T20:46:32.335Z,83.57
2022-11-26T20:49:21.831Z,83.23
2022-11-26T20:52:11.146Z,83.35
2022-11-26T20:55:00.617Z,83.00
2022-11-26T20:57:50.644Z,82.90
2022-11-26T21:00:43.444Z,82.98
2022-11-26T21:03:34.316Z,82.85
2022-11-26T21:06:30.300Z,82.18
2022-11-26T21:09:20.137Z,82.28
2022-11-26T21:12:09.602Z,81.45
2022-11-26T21:14:59.373Z,81.23
2022-11-26T21:17:48.850Z,80.42
2022-11-26T21:20:42.264Z,79.62
2022-11-26T21:23:31.599Z,79.27
2022-11-26T21:26:23.371Z,79.36
2022-11-26T21:29:13.690Z,79.24
2022-11-26T21:32:03.222Z,79.29
2022-11-26T21:34:53.283Z,78.98
2022-11-26T21:37:44.267Z,78.07
2022-11-26T21:40:34.283Z,77.82
2022-11-26T21:43:23.769Z,77.74
2022-11-26T21:46:18.430Z,77.79
2022-11-26T21:49:08.915Z,77.35
2022-11-26T21:51:58.801Z,77.07
2022-11-26T21:54:49.665Z,76.71
2022-11-26T21:57:39.118Z,76.07
2022-11-26T22:00:28.670Z,74.79
2022-11-26T22:03:18.261Z,74.30
2022-11-26T22:06:08.312Z,72.58
2022-11-26T22:08:58.303Z,72.43
2022-11-26T22:11:49.057Z,72.16
2022-11-26T22:14:38.424Z,72.08
2022-11-26T22:17:27.780Z,72.59
2022-11-26T22:20:17.527Z,72.83
2022-11-26T22:23:06.917Z,73.43
2022-11-26T22:25:56.207Z,73.30
2022-11-26T22:28:47.334Z,73.08
2022-11-26T22:31:38.833Z,72.23
2022-11-26T22:34:29.234Z,70.51
2022-11-26T22:37:18.555Z,69.60
2022-11-26T22:40:10.128Z,68.85
2022-11-26T22:42:59.884Z,68.90
2022-11-26T22:45:50.564Z,68.13
2022-11-26T22:48:40.274Z,67.55
2022-11-26T22:51:32.534Z,67.24
2022-11-26T22:54:22.261Z,67.53
2022-11-26T22:57:12.049Z,66.99
2022-11-26T23:00:01.579Z,67.87
2022-11-26T23:02:52.694Z,67.76
2022-11-26T23:05:42.194Z,67.85
2022-11-26T23:08:31.723Z,68.02
2022-11-26T23:11:26.947Z,68.76
2022-11-26T23:14:16.272Z,68.28
2022-11-26T23:17:05.493Z,67.62
2022-11-26T23:19:56.305Z,66.63
2022-11-26T23:22:45.844Z,66.79
2022-11-26T23:25:39.082Z,66.99
2022-11-26T23:28:28.437Z,66.76
2022-11-26T23:31:21.445Z,67.27
2022-11-26T23:34:12.270Z,67.31
2022-11-26T23:37:03.153Z,67.39
2022-11-26T23:39:52.910Z,67.50
2022-11-26T23:42:42.315Z,67.24
2022-11-26T23:45:31.638Z,66.27
2022-11-26T23:48:20.889Z,65.73
2022-11-26T23:51:12.321Z,65.73
2022-11-26T23:54:03.403Z,65.42
2022-11-26T23:56:52.651Z,65.04
2022-11-26T23:59:42.208Z,64.86
